STN weather

London Stansted Airport
London, England, United Kingdom

Public forecast

Using degrees Celsius for public forecast. Weather courtesy of forecast.io.

METAR (pilot weather report)

Retrieved 2018/04/22 04:20 UTC (25 seconds ago):

EGSS 220420Z AUTO VRB02KT 4600 BR //////CB 13/12 Q1011

TAF (pilot weather forecast)

Forecast is more than 12 hours old.

Retrieved 2018/04/21 00:15 UTC (1 day ago):

TAF EGSS 212303Z 2200/2306 15008KT 9999 FEW045 PROB30 TEMPO 2200/2202 18015G25KT 5000 SHRA TSGR PROB40 2203/2209 8000 BECMG 2206/2209 21010KT BECMG 2213/2216 27010KT PROB40 TEMPO 2213/2218 4000 +SHRA BKN014 BKN040CB